Wolcott, CO (81655)

12:25 PM MDT on April 29, 2017 (GMT -0600)
Homestead-Spring Creek | | Change Station

Elev 7461 ft 39.64 °N, 106.60 °W | Updated 11 seconds ago

Overcast
Overcast
34.3 °F
Feels Like 28 °F
N
8.1
Wind Variable Wind from NW
Gusts 9.8 mph

Today
High -- | Low -- °F
--% Chance of Precip.
Yesterday
High -- | Low -- °F
Precip. -- in
Pressure 30.09 in
Visibility 10.0 miles
Clouds Overcast 7000 ft
Windchill 28 °F
Dew Point 15 °F
Humidity 44%
Rainfall 0.00 in
Snow Depth Not available.
6:09 AM 7:59 PM
Waxing Crescent, 15% visible
METAR KEGE 291650Z 28006KT 10SM OVC070 02/M09 A3009
Pressure 30.09 in
Visibility 10.0 miles
Clouds Overcast 7000 ft
Windchill 28 °F
Dew Point 15 °F
Humidity 44%
Rainfall 0.00 in
Snow Depth Not available.
6:09 AM 7:59 PM
Waxing Crescent, 15% visible
METAR KEGE 291650Z 28006KT 10SM OVC070 02/M09 A3009

Get Severe Weather Alerts

Thanks for signing up!

Be on the lookout for a verification email in your inbox.

You'll start receiving the daily forecast at 8 AM.

×

10-Day Weather Forecast

Almanac

Astronomy

Apr. 29, 2017 Rise Set
Actual Time
Civil Twilight
Nautical Twilight
Astronomical Twilight
Moon
Length of Visible Light
Length of Day
Tomorrow will be .
, % of the Moon is Illuminated

Today's Extremes

State Highs State Lows

Community

WunderPhotos

WunderBlog® & News

Nearby

Air Quality

  Air Quality AQ Index Pollutant
Not available.

Snow Depth

Station Depth Elevation

Earthquake Activity

City Distance Mag. Time & Date
Minimum magnitude displayed is 2.5.

Coastal Water Temperatures

Place Temperature

Stations

Nearby Weather Stations

Station Location Temp. Windchill Dew Point Humidity Wind Precip. Elev Updated Type
                   

Watches & Warnings

There are currently no watches in effect.